createdAt,value
2016-05-28T00:00:02.407Z,0
2016-05-28T00:01:02.394Z,0
2016-05-28T00:02:02.382Z,0
2016-05-28T00:03:02.354Z,0
2016-05-28T00:04:02.496Z,0
2016-05-28T00:05:03.577Z,0
2016-05-28T00:06:02.440Z,0
2016-05-28T00:07:02.442Z,0
2016-05-28T00:08:02.399Z,0
2016-05-28T00:09:02.385Z,0
2016-05-28T00:10:02.356Z,0
2016-05-28T00:11:02.344Z,0
2016-05-28T00:12:02.331Z,0
2016-05-28T00:13:02.146Z,0
2016-05-28T00:14:02.118Z,0
2016-05-28T00:15:02.276Z,0
2016-05-28T00:16:02.264Z,0
2016-05-28T00:17:02.219Z,0
2016-05-28T00:18:02.206Z,0
2016-05-28T00:19:01.865Z,0
2016-05-28T00:20:04.446Z,0
2016-05-28T00:21:01.823Z,0
2016-05-28T00:22:02.139Z,0
2016-05-28T00:23:02.095Z,0
2016-05-28T00:24:01.926Z,0
2016-05-28T00:25:01.913Z,4
2016-05-28T00:26:02.040Z,4
2016-05-28T00:27:02.028Z,0
2016-05-28T00:28:01.983Z,0
2016-05-28T00:29:01.970Z,0
2016-05-28T00:30:01.802Z,0
2016-05-28T00:31:01.772Z,0
2016-05-28T00:32:01.775Z,0
2016-05-28T00:33:01.888Z,0
2016-05-28T00:34:01.874Z,0
2016-05-28T00:35:01.549Z,4
2016-05-28T00:36:01.693Z,4
2016-05-28T00:37:01.789Z,4
2016-05-28T00:38:01.776Z,0
2016-05-28T00:39:01.763Z,0
2016-05-28T00:40:01.578Z,0
2016-05-28T00:41:01.721Z,0
2016-05-28T00:42:01.693Z,0
2016-05-28T00:43:01.680Z,0
2016-05-28T00:44:01.667Z,0
2016-05-28T00:45:01.638Z,0
2016-05-28T00:46:01.626Z,0
2016-05-28T00:47:01.426Z,0
2016-05-28T00:48:01.568Z,0
2016-05-28T00:49:01.556Z,0
2016-05-28T00:50:01.870Z,0
2016-05-28T00:51:01.498Z,0
2016-05-28T00:52:01.501Z,0
2016-05-28T00:53:01.456Z,0
2016-05-28T00:54:01.444Z,0
2016-05-28T00:55:01.275Z,0
2016-05-28T00:56:01.246Z,0
2016-05-28T00:57:01.390Z,0
2016-05-28T00:58:01.377Z,0
2016-05-28T00:59:01.347Z,0
2016-05-28T01:00:01.320Z,0
2016-05-28T01:01:01.291Z,0
2016-05-28T01:02:01.277Z,0
2016-05-28T01:03:01.265Z,0
2016-05-28T01:04:01.236Z,0
2016-05-28T01:05:01.114Z,0
2016-05-28T01:06:01.038Z,0
2016-05-28T01:07:01.010Z,0
2016-05-28T01:08:01.138Z,0
2016-05-28T01:09:01.219Z,0
2016-05-28T01:10:01.160Z,0
2016-05-28T01:11:01.129Z,0
2016-05-28T01:12:01.132Z,0
2016-05-28T01:13:01.042Z,0
2016-05-28T01:14:01.154Z,0
2016-05-28T01:15:00.843Z,0
2016-05-28T01:16:00.988Z,0
2016-05-28T01:17:00.974Z,0
2016-05-28T01:18:00.774Z,0
2016-05-28T01:19:00.901Z,0
2016-05-28T01:20:01.467Z,0
2016-05-28T01:21:00.720Z,0
2016-05-28T01:22:00.847Z,0
2016-05-28T01:23:00.678Z,0
2016-05-28T01:24:00.806Z,0
2016-05-28T01:25:00.792Z,0
2016-05-28T01:26:00.764Z,0
2016-05-28T01:27:00.579Z,0
2016-05-28T01:28:00.739Z,0
2016-05-28T01:29:00.695Z,0
2016-05-28T01:30:00.697Z,0
2016-05-28T01:31:00.653Z,0
2016-05-28T01:32:00.639Z,0
2016-05-28T01:33:00.611Z,0
2016-05-28T01:34:00.583Z,0
2016-05-28T01:35:01.069Z,0
2016-05-28T01:36:00.557Z,0
2016-05-28T01:37:00.528Z,0
2016-05-28T01:38:00.515Z,0
2016-05-28T01:39:00.487Z,0
2016-05-28T01:40:00.317Z,0
2016-05-28T01:41:00.446Z,0
2016-05-28T01:42:00.432Z,0
2016-05-28T01:43:00.404Z,0
2016-05-28T01:44:00.235Z,0
2016-05-28T01:45:00.049Z,0
2016-05-28T01:46:00.037Z,0
2016-05-28T01:47:00.337Z,0
2016-05-28T01:48:00.292Z,0
2016-05-28T01:49:00.279Z,0
2016-05-28T01:50:00.110Z,0
2016-05-28T01:51:00.081Z,0
2016-05-28T01:52:00.209Z,0
2016-05-28T01:53:00.195Z,0
2016-05-28T01:54:00.183Z,0
2016-05-28T01:55:00.155Z,0
2016-05-28T01:55:59.970Z,0
2016-05-28T01:57:00.114Z,0
2016-05-28T01:58:00.100Z,0
2016-05-28T01:59:00.072Z,0
2016-05-28T02:00:00.044Z,0
2016-05-28T02:01:00.030Z,0
2016-05-28T02:02:00.002Z,0
2016-05-28T02:02:59.988Z,0
2016-05-28T02:03:59.960Z,0
2016-05-28T02:04:59.728Z,0
2016-05-28T02:05:59.919Z,0
2016-05-28T02:06:59.906Z,0
2016-05-28T02:07:59.893Z,0
2016-05-28T02:08:59.864Z,0
2016-05-28T02:09:59.680Z,0
2016-05-28T02:10:59.808Z,0
2016-05-28T02:11:59.810Z,0
2016-05-28T02:12:59.781Z,0
2016-05-28T02:13:59.768Z,0
2016-05-28T02:14:59.740Z,0
2016-05-28T02:15:59.712Z,0
2016-05-28T02:16:59.698Z,0
2016-05-28T02:17:59.685Z,0
2016-05-28T02:18:59.640Z,0
2016-05-28T02:19:59.644Z,0
2016-05-28T02:20:59.600Z,0
2016-05-28T02:21:59.602Z,0
2016-05-28T02:22:59.418Z,0
2016-05-28T02:23:59.561Z,0
2016-05-28T02:24:59.548Z,0
2016-05-28T02:25:59.504Z,0
2016-05-28T02:26:59.491Z,0
2016-05-28T02:27:59.494Z,0
2016-05-28T02:28:59.293Z,0
2016-05-28T02:29:59.249Z,0
2016-05-28T02:30:59.392Z,0
2016-05-28T02:31:59.395Z,0
2016-05-28T02:32:59.366Z,0
2016-05-28T02:33:59.338Z,0
2016-05-28T02:34:59.324Z,0
2016-05-28T02:35:59.296Z,0
2016-05-28T02:36:59.269Z,0
2016-05-28T02:37:59.255Z,0
2016-05-28T02:38:59.227Z,0
2016-05-28T02:39:59.057Z,0
2016-05-28T02:40:59.185Z,0
2016-05-28T02:41:58.999Z,0
2016-05-28T02:42:59.003Z,0
2016-05-28T02:43:59.130Z,0
2016-05-28T02:44:59.101Z,0
2016-05-28T02:45:59.089Z,4
2016-05-28T02:46:59.045Z,4
2016-05-28T02:47:59.032Z,4
2016-05-28T02:48:59.018Z,4
2016-05-28T02:49:59.396Z,0
2016-05-28T02:50:58.977Z,0
2016-05-28T02:51:58.809Z,4
2016-05-28T02:52:58.937Z,4
2016-05-28T02:53:58.922Z,4
2016-05-28T02:54:58.894Z,8
2016-05-28T02:55:58.881Z,4
2016-05-28T02:56:58.697Z,4
2016-05-28T02:57:58.839Z,8
2016-05-28T02:58:58.655Z,8
2016-05-28T02:59:58.626Z,8
2016-05-28T03:00:58.769Z,8
2016-05-28T03:01:58.742Z,12
2016-05-28T03:02:58.556Z,12
2016-05-28T03:03:58.716Z,16
2016-05-28T03:04:58.718Z,16
2016-05-28T03:05:58.674Z,16
2016-05-28T03:06:58.660Z,20
2016-05-28T03:07:58.617Z,24
2016-05-28T03:08:58.619Z,24
2016-05-28T03:09:58.591Z,28
2016-05-28T03:10:58.563Z,28
2016-05-28T03:11:58.534Z,32
2016-05-28T03:12:58.536Z,36
2016-05-28T03:13:58.336Z,36
2016-05-28T03:14:58.323Z,40
2016-05-28T03:15:58.466Z,44
2016-05-28T03:16:58.437Z,48
2016-05-28T03:17:58.410Z,56
2016-05-28T03:18:58.381Z,60
2016-05-28T03:19:58.790Z,64
2016-05-28T03:20:58.339Z,68
2016-05-28T03:21:58.342Z,76
2016-05-28T03:22:58.313Z,84
2016-05-28T03:23:57.988Z,92
2016-05-28T03:24:58.272Z,104
2016-05-28T03:25:58.259Z,116
2016-05-28T03:26:58.230Z,124
2016-05-28T03:27:58.201Z,140
2016-05-28T03:28:58.204Z,152
2016-05-28T03:29:58.020Z,164
2016-05-28T03:30:58.147Z,180
2016-05-28T03:31:58.134Z,192
2016-05-28T03:32:58.090Z,212
2016-05-28T03:33:58.077Z,236
2016-05-28T03:34:58.642Z,256
2016-05-28T03:35:58.036Z,280
2016-05-28T03:36:57.866Z,304
2016-05-28T03:37:57.994Z,328
2016-05-28T03:38:57.980Z,348
2016-05-28T03:39:57.796Z,376
2016-05-28T03:40:57.925Z,404
2016-05-28T03:41:57.896Z,428
2016-05-28T03:42:57.898Z,456
2016-05-28T03:43:57.870Z,484
2016-05-28T03:44:57.841Z,520
2016-05-28T03:45:57.688Z,564
2016-05-28T03:46:57.815Z,608
2016-05-28T03:47:57.787Z,648
2016-05-28T03:48:57.758Z,692
2016-05-28T03:49:57.480Z,732
2016-05-28T03:50:57.717Z,780
2016-05-28T03:51:57.704Z,820
2016-05-28T03:52:57.676Z,864
2016-05-28T03:53:57.663Z,912
2016-05-28T03:54:57.634Z,968
2016-05-28T03:55:57.620Z,1028
2016-05-28T03:56:57.592Z,1096
2016-05-28T03:57:57.579Z,1180
2016-05-28T03:58:57.550Z,1272
2016-05-28T03:59:57.522Z,1360
2016-05-28T04:00:57.509Z,1440
2016-05-28T04:01:57.481Z,1504
2016-05-28T04:02:57.468Z,1564
2016-05-28T04:03:57.439Z,1616
2016-05-28T04:04:58.114Z,1664
2016-05-28T04:05:57.414Z,1704
2016-05-28T04:06:57.385Z,1748
2016-05-28T04:07:57.371Z,1792
2016-05-28T04:08:57.344Z,1852
2016-05-28T04:09:57.330Z,1920
2016-05-28T04:10:57.161Z,1988
2016-05-28T04:11:57.289Z,2064
2016-05-28T04:12:57.276Z,2128
2016-05-28T04:13:57.232Z,2204
2016-05-28T04:14:57.235Z,2284
2016-05-28T04:15:57.206Z,2384
2016-05-28T04:16:57.193Z,2500
2016-05-28T04:17:57.149Z,2644
2016-05-28T04:18:57.152Z,2808
2016-05-28T04:19:56.982Z,2976
2016-05-28T04:20:57.094Z,3168
2016-05-28T04:21:56.925Z,3344
2016-05-28T04:22:56.896Z,3508
2016-05-28T04:23:57.040Z,3552
2016-05-28T04:24:57.012Z,3560
2016-05-28T04:25:56.842Z,3640
2016-05-28T04:26:56.970Z,3816
2016-05-28T04:27:56.941Z,4024
2016-05-28T04:28:56.944Z,4276
2016-05-28T04:29:56.759Z,4532
2016-05-28T04:30:56.886Z,4748
2016-05-28T04:31:56.858Z,4904
2016-05-28T04:32:56.845Z,4956
2016-05-28T04:33:56.816Z,4920
2016-05-28T04:34:56.819Z,4804
2016-05-28T04:35:56.806Z,4768
2016-05-28T04:36:56.794Z,4792
2016-05-28T04:37:56.765Z,4856
2016-05-28T04:38:56.721Z,4976
2016-05-28T04:39:56.724Z,5116
2016-05-28T04:40:56.695Z,5232
2016-05-28T04:41:56.525Z,5336
2016-05-28T04:42:56.653Z,5384
2016-05-28T04:43:56.625Z,5412
2016-05-28T04:44:56.628Z,5448
2016-05-28T04:45:56.599Z,5480
2016-05-28T04:46:56.571Z,5504
2016-05-28T04:47:56.558Z,5508
2016-05-28T04:48:56.544Z,5504
2016-05-28T04:49:56.610Z,5516
2016-05-28T04:50:56.488Z,5564
2016-05-28T04:51:56.474Z,5684
2016-05-28T04:52:56.443Z,5868
2016-05-28T04:53:56.415Z,6064
2016-05-28T04:54:56.433Z,6248
2016-05-28T04:55:56.373Z,6380
2016-05-28T04:56:56.204Z,6416
2016-05-28T04:57:56.331Z,6396
2016-05-28T04:58:56.318Z,6356
2016-05-28T04:59:56.321Z,6320
2016-05-28T05:00:56.309Z,6328
2016-05-28T05:01:56.264Z,6432
2016-05-28T05:02:56.095Z,6632
2016-05-28T05:03:56.239Z,6944
2016-05-28T05:04:56.631Z,7400
2016-05-28T05:05:56.197Z,7980
2016-05-28T05:06:56.168Z,9300
2016-05-28T05:07:56.139Z,8992
2016-05-28T05:08:56.137Z,9340
2016-05-28T05:09:56.132Z,9224
2016-05-28T05:10:56.144Z,9444
2016-05-28T05:11:56.155Z,10000
2016-05-28T05:12:56.198Z,10412
2016-05-28T05:13:56.157Z,10708
2016-05-28T05:14:56.154Z,10272
2016-05-28T05:15:56.149Z,10028
2016-05-28T05:16:56.113Z,10152
2016-05-28T05:17:56.125Z,10228
2016-05-28T05:18:56.104Z,10376
2016-05-28T05:19:56.140Z,10552
2016-05-28T05:20:55.926Z,10708
2016-05-28T05:21:55.918Z,10820
2016-05-28T05:22:56.064Z,10884
2016-05-28T05:23:56.022Z,10932
2016-05-28T05:24:55.855Z,10964
2016-05-28T05:25:55.983Z,10996
2016-05-28T05:26:55.971Z,11028
2016-05-28T05:27:55.944Z,11060
2016-05-28T05:28:55.931Z,11084
2016-05-28T05:29:55.903Z,11128
2016-05-28T05:30:55.890Z,11180
2016-05-28T05:31:55.894Z,11256
2016-05-28T05:32:55.866Z,11376
2016-05-28T05:33:55.853Z,11524
2016-05-28T05:34:55.855Z,11676
2016-05-28T05:35:55.795Z,11836
2016-05-28T05:36:55.783Z,12040
2016-05-28T05:37:55.473Z,12220
2016-05-28T05:38:55.773Z,12424
2016-05-28T05:39:55.743Z,12632
2016-05-28T05:40:55.746Z,12752
2016-05-28T05:41:55.703Z,12860
2016-05-28T05:42:55.674Z,13000
2016-05-28T05:43:55.504Z,13172
2016-05-28T05:44:55.632Z,13292
2016-05-28T05:45:55.307Z,13456
2016-05-28T05:46:55.592Z,13636
2016-05-28T05:47:55.578Z,13792
2016-05-28T05:48:55.580Z,13964
2016-05-28T05:49:56.428Z,14124
2016-05-28T05:50:55.383Z,14328
2016-05-28T05:51:55.495Z,14568
2016-05-28T05:52:55.483Z,14676
2016-05-28T05:53:55.328Z,14852
2016-05-28T05:54:55.456Z,15068
2016-05-28T05:55:55.443Z,15276
2016-05-28T05:56:55.415Z,15532
2016-05-28T05:57:55.402Z,15764
2016-05-28T05:58:55.217Z,16036
2016-05-28T05:59:55.220Z,16232
2016-05-28T06:00:55.347Z,16400
2016-05-28T06:01:55.335Z,16840
2016-05-28T06:02:55.305Z,18912
2016-05-28T06:03:55.309Z,21664
2016-05-28T06:04:56.015Z,25344
2016-05-28T06:05:55.111Z,28576
2016-05-28T06:06:55.082Z,29920
2016-05-28T06:07:55.240Z,28928
2016-05-28T06:08:55.212Z,28064
2016-05-28T06:09:55.185Z,29568
2016-05-28T06:10:55.187Z,32768
2016-05-28T06:11:55.173Z,35520
2016-05-28T06:12:55.161Z,36320
2016-05-28T06:13:55.148Z,35168
2016-05-28T06:14:55.120Z,33248
2016-05-28T06:15:54.950Z,32160
2016-05-28T06:16:55.109Z,33152
2016-05-28T06:17:54.925Z,34816
2016-05-28T06:18:55.099Z,36768
2016-05-28T06:19:56.117Z,37344
2016-05-28T06:20:55.026Z,37312
2016-05-28T06:21:55.014Z,36352
2016-05-28T06:22:55.000Z,34624
2016-05-28T06:23:55.019Z,32608
2016-05-28T06:24:54.975Z,31744
2016-05-28T06:25:54.961Z,32128
2016-05-28T06:26:54.949Z,34400
2016-05-28T06:27:54.780Z,37184
2016-05-28T06:28:54.922Z,37088
2016-05-28T06:29:54.910Z,36960
2016-05-28T06:30:54.913Z,36064
2016-05-28T06:31:54.899Z,34432
2016-05-28T06:32:54.730Z,34784
2016-05-28T06:33:54.858Z,37120
2016-05-28T06:34:54.846Z,40064
2016-05-28T06:35:54.832Z,40768
2016-05-28T06:36:54.679Z,38240
2016-05-28T06:37:54.821Z,35584
2016-05-28T06:38:54.809Z,34432
2016-05-28T06:39:54.812Z,35456
2016-05-28T06:40:54.799Z,38528
2016-05-28T06:41:54.770Z,42432
2016-05-28T06:42:54.804Z,44544
2016-05-28T06:43:54.776Z,46016
2016-05-28T06:44:54.747Z,45536
2016-05-28T06:45:54.734Z,44480
2016-05-28T06:46:54.720Z,43264
2016-05-28T06:47:54.709Z,45056
2016-05-28T06:48:54.711Z,47904
2016-05-28T06:49:56.214Z,48960
2016-05-28T06:50:54.700Z,48416
2016-05-28T06:51:54.687Z,46112
2016-05-28T06:52:54.690Z,46720
2016-05-28T06:53:54.505Z,50016
2016-05-28T06:54:54.650Z,52928
2016-05-28T06:55:54.636Z,54336
2016-05-28T06:56:54.638Z,54176
2016-05-28T06:57:54.626Z,53696
2016-05-28T06:58:54.629Z,50560
2016-05-28T06:59:54.616Z,38208
2016-05-28T07:00:54.586Z,53440
2016-05-28T07:01:54.605Z,42240
2016-05-28T07:02:54.592Z,52416
2016-05-28T07:03:54.579Z,55360
2016-05-28T07:04:55.207Z,48832
2016-05-28T07:05:54.569Z,32096
2016-05-28T07:06:54.415Z,40480
2016-05-28T07:07:54.387Z,29632
2016-05-28T07:08:54.530Z,31584
2016-05-28T07:09:54.533Z,32000
2016-05-28T07:10:54.535Z,28736
2016-05-28T07:11:54.507Z,30848
2016-05-28T07:12:54.509Z,31264
2016-05-28T07:13:54.496Z,31616
2016-05-28T07:14:54.499Z,33696
2016-05-28T07:15:54.486Z,27680
2016-05-28T07:16:54.474Z,27904
2016-05-28T07:17:54.476Z,29056
2016-05-28T07:18:54.307Z,35264
2016-05-28T07:19:54.466Z,37408
2016-05-28T07:20:54.437Z,33152
2016-05-28T07:21:54.439Z,28288
2016-05-28T07:22:54.443Z,31712
2016-05-28T07:23:54.398Z,32800
2016-05-28T07:24:54.401Z,45792
2016-05-28T07:25:54.404Z,27136
2016-05-28T07:26:54.391Z,26176
2016-05-28T07:27:54.378Z,24000
2016-05-28T07:28:54.365Z,42624
2016-05-28T07:29:54.353Z,40032
2016-05-28T07:30:54.355Z,37472
2016-05-28T07:31:54.341Z,34336
2016-05-28T07:32:54.314Z,37664
2016-05-28T07:33:54.333Z,44608
2016-05-28T07:34:54.350Z,37824
2016-05-28T07:35:54.305Z,46432
2016-05-28T07:36:54.293Z,54816
2016-05-28T07:37:54.296Z,58368
2016-05-28T07:38:54.282Z,59872
2016-05-28T07:39:54.129Z,60192
2016-05-28T07:40:54.257Z,57472
2016-05-28T07:41:54.260Z,55968
2016-05-28T07:42:54.246Z,55264
2016-05-28T07:43:53.937Z,57856
2016-05-28T07:44:54.237Z,63296
2016-05-28T07:45:54.207Z,64096
2016-05-28T07:46:54.210Z,62144
2016-05-28T07:47:54.197Z,58400
2016-05-28T07:48:54.200Z,49376
2016-05-28T07:49:54.953Z,49248
2016-05-28T07:50:54.190Z,52800
2016-05-28T07:51:54.020Z,48960
2016-05-28T07:52:54.164Z,40800
2016-05-28T07:53:53.870Z,30112
2016-05-28T07:54:54.153Z,29952
2016-05-28T07:55:54.156Z,30496
2016-05-28T07:56:54.144Z,34144
2016-05-28T07:57:54.162Z,30624
2016-05-28T07:58:54.134Z,36160
2016-05-28T07:59:54.136Z,57568
2016-05-28T08:00:54.138Z,42016
2016-05-28T08:01:54.126Z,30912
2016-05-28T08:02:53.957Z,31616
2016-05-28T08:03:53.944Z,28640
2016-05-28T08:04:54.477Z,37184
2016-05-28T08:05:54.074Z,46848
2016-05-28T08:06:54.077Z,26784
2016-05-28T08:07:54.063Z,26176
2016-05-28T08:08:53.910Z,41792
2016-05-28T08:09:54.054Z,83712
2016-05-28T08:10:54.041Z,57664
2016-05-28T08:11:54.043Z,51712
2016-05-28T08:12:56.640Z,46176
2016-05-28T08:13:54.033Z,76864
2016-05-28T08:14:54.035Z,65696
2016-05-28T08:15:54.023Z,77312
2016-05-28T08:16:54.010Z,76544
2016-05-28T08:17:53.981Z,75968
2016-05-28T08:18:54.031Z,68160
2016-05-28T08:19:53.690Z,69792
2016-05-28T08:20:53.989Z,72992
2016-05-28T08:21:53.993Z,79904
2016-05-28T08:22:53.979Z,83360
2016-05-28T08:23:53.950Z,92576
2016-05-28T08:24:53.953Z,78912
2016-05-28T08:25:53.956Z,80256
2016-05-28T08:26:53.942Z,84096
2016-05-28T08:27:53.946Z,70464
2016-05-28T08:28:53.933Z,61760
2016-05-28T08:29:53.780Z,55392
2016-05-28T08:30:53.923Z,49824
2016-05-28T08:31:53.769Z,44032
2016-05-28T08:32:53.928Z,39328
2016-05-28T08:33:53.930Z,49088
2016-05-28T08:34:54.058Z,71200
2016-05-28T08:35:53.905Z,51488
2016-05-28T08:36:53.907Z,66528
2016-05-28T08:37:53.894Z,68000
2016-05-28T08:38:53.757Z,63328
2016-05-28T08:39:53.744Z,75008
2016-05-28T08:40:53.731Z,68800
2016-05-28T08:41:53.874Z,76448
2016-05-28T08:42:53.721Z,76992
2016-05-28T08:43:53.863Z,70112
2016-05-28T08:44:53.866Z,82944
2016-05-28T08:45:53.869Z,54976
2016-05-28T08:46:53.857Z,57888
2016-05-28T08:47:53.859Z,68512
2016-05-28T08:48:53.846Z,70240
2016-05-28T08:49:53.615Z,72992
2016-05-28T08:50:53.852Z,76448
2016-05-28T08:51:53.839Z,81120
2016-05-28T08:52:53.684Z,86464
2016-05-28T08:53:53.829Z,91264
2016-05-28T08:54:53.831Z,88512
2016-05-28T08:55:53.834Z,56416
2016-05-28T08:56:53.806Z,23104
2016-05-28T08:57:53.651Z,20096
2016-05-28T08:58:53.653Z,19404
2016-05-28T08:59:53.485Z,19220
2016-05-28T09:00:53.816Z,19048
2016-05-28T09:01:53.631Z,19100
2016-05-28T09:02:53.789Z,19396
2016-05-28T09:03:53.793Z,20000
2016-05-28T09:04:53.780Z,20576
2016-05-28T09:05:53.783Z,20896
2016-05-28T09:06:53.597Z,20992
2016-05-28T09:07:53.741Z,20992
2016-05-28T09:08:53.743Z,21120
2016-05-28T09:09:53.746Z,21024
2016-05-28T09:10:53.577Z,20800
2016-05-28T09:11:53.580Z,20480
2016-05-28T09:12:53.707Z,19716
2016-05-28T09:13:53.710Z,19228
2016-05-28T09:14:53.697Z,18896
2016-05-28T09:15:53.700Z,18752
2016-05-28T09:16:53.687Z,18684
2016-05-28T09:17:53.690Z,19052
2016-05-28T09:18:53.662Z,19300
2016-05-28T09:19:54.585Z,19772
2016-05-28T09:20:53.495Z,20384
2016-05-28T09:21:53.637Z,20608
2016-05-28T09:22:53.626Z,20288
2016-05-28T09:23:53.471Z,20128
2016-05-28T09:24:54.146Z,19476
2016-05-28T09:25:53.587Z,19100
2016-05-28T09:26:53.434Z,19092
2016-05-28T09:27:53.576Z,19420
2016-05-28T09:28:53.406Z,20096
2016-05-28T09:29:53.566Z,20224
2016-05-28T09:30:53.537Z,19468
2016-05-28T09:31:53.525Z,18384
2016-05-28T09:32:53.528Z,17332
2016-05-28T09:33:53.529Z,17056
2016-05-28T09:34:53.454Z,17328
2016-05-28T09:35:53.488Z,16212
2016-05-28T09:36:53.491Z,16288
2016-05-28T09:37:53.477Z,16860
2016-05-28T09:38:53.449Z,16136
2016-05-28T09:39:53.452Z,15608
2016-05-28T09:40:53.438Z,15444
2016-05-28T09:41:53.286Z,15040
2016-05-28T09:42:53.413Z,14468
2016-05-28T09:43:53.088Z,14276
2016-05-28T09:44:53.387Z,14964
2016-05-28T09:45:53.374Z,15320
2016-05-28T09:46:53.362Z,15988
2016-05-28T09:47:53.208Z,16484
2016-05-28T09:48:53.352Z,15880
2016-05-28T09:49:53.448Z,15128
2016-05-28T09:50:53.309Z,14840
2016-05-28T09:51:57.156Z,14208
2016-05-28T09:52:53.315Z,14304
2016-05-28T09:53:53.286Z,14592
2016-05-28T09:54:53.133Z,14440
2016-05-28T09:55:53.698Z,14056
2016-05-28T09:56:54.076Z,13916
2016-05-28T09:57:53.078Z,13976
2016-05-28T09:58:54.690Z,14124
2016-05-28T09:59:53.209Z,14264
2016-05-28T10:00:53.040Z,14440
2016-05-28T10:01:55.933Z,14980
2016-05-28T10:02:53.169Z,15856
2016-05-28T10:03:53.157Z,16000
2016-05-28T10:04:53.598Z,16128
2016-05-28T10:05:52.991Z,16440
2016-05-28T10:06:56.196Z,15808
2016-05-28T10:07:53.122Z,14592
2016-05-28T10:08:53.092Z,14532
2016-05-28T10:09:53.080Z,14960
2016-05-28T10:10:53.083Z,15168
2016-05-28T10:11:54.508Z,14812
2016-05-28T10:12:53.041Z,14020
2016-05-28T10:13:53.043Z,13372
2016-05-28T10:14:53.015Z,12772
2016-05-28T10:15:53.002Z,12068
2016-05-28T10:16:53.005Z,11896
2016-05-28T10:17:52.883Z,12504
2016-05-28T10:18:52.994Z,12720
2016-05-28T10:19:52.779Z,13560
2016-05-28T10:20:52.781Z,13676
2016-05-28T10:21:56.065Z,13788
2016-05-28T10:22:52.912Z,14284
2016-05-28T10:23:52.758Z,14464
2016-05-28T10:24:52.932Z,13456
2016-05-28T10:25:52.872Z,11784
2016-05-28T10:26:57.032Z,10688
2016-05-28T10:27:52.847Z,10688
2016-05-28T10:28:52.850Z,11064
2016-05-28T10:29:52.836Z,11784
2016-05-28T10:30:52.808Z,13248
2016-05-28T10:31:55.404Z,14704
2016-05-28T10:32:52.782Z,16628
2016-05-28T10:33:52.784Z,16972
2016-05-28T10:34:53.522Z,17016
2016-05-28T10:35:52.759Z,17900
2016-05-28T10:36:52.746Z,18380
2016-05-28T10:37:52.733Z,18244
2016-05-28T10:38:52.563Z,17892
2016-05-28T10:39:52.691Z,18168
2016-05-28T10:40:52.694Z,18652
2016-05-28T10:41:52.681Z,19168
2016-05-28T10:42:52.652Z,18664
2016-05-28T10:43:52.640Z,17356
2016-05-28T10:44:52.643Z,16264
2016-05-28T10:45:52.473Z,15140
2016-05-28T10:46:52.632Z,13880
2016-05-28T10:47:52.604Z,13492
2016-05-28T10:48:52.449Z,13588
2016-05-28T10:49:52.593Z,14224
2016-05-28T10:50:52.596Z,14968
2016-05-28T10:51:52.552Z,15260
2016-05-28T10:52:52.585Z,14752
2016-05-28T10:53:52.557Z,14108
2016-05-28T10:54:52.513Z,13660
2016-05-28T10:55:53.610Z,13504
2016-05-28T10:56:52.487Z,13372
2016-05-28T10:57:52.490Z,13288
2016-05-28T10:58:52.477Z,13308
2016-05-28T10:59:53.120Z,13636
2016-05-28T11:00:52.482Z,13764
2016-05-28T11:01:52.438Z,13760
2016-05-28T11:02:52.410Z,13368
2016-05-28T11:03:52.412Z,12932
2016-05-28T11:04:54.322Z,12488
2016-05-28T11:05:52.527Z,12336
2016-05-28T11:06:52.389Z,12400
2016-05-28T11:07:52.361Z,12132
2016-05-28T11:08:52.363Z,12060
2016-05-28T11:09:52.335Z,12132
2016-05-28T11:10:52.384Z,12508
2016-05-28T11:11:52.308Z,12996
2016-05-28T11:12:52.139Z,13472
2016-05-28T11:13:52.299Z,14080
2016-05-28T11:14:52.286Z,14764
2016-05-28T11:15:52.116Z,14964
2016-05-28T11:16:52.104Z,14956
2016-05-28T11:17:52.247Z,15024
2016-05-28T11:18:52.235Z,15744
2016-05-28T11:19:52.846Z,16536
2016-05-28T11:20:52.208Z,16232
2016-05-28T11:21:52.039Z,15872
2016-05-28T11:22:52.199Z,15188
2016-05-28T11:23:52.012Z,14476
2016-05-28T11:24:52.171Z,14236
2016-05-28T11:25:52.143Z,14056
2016-05-28T11:26:52.146Z,13292
2016-05-28T11:27:52.148Z,12376
2016-05-28T11:28:52.120Z,12124
2016-05-28T11:29:52.107Z,12076
2016-05-28T11:30:51.938Z,12328
2016-05-28T11:31:52.097Z,13184
2016-05-28T11:32:52.053Z,13708
2016-05-28T11:33:51.915Z,13476
2016-05-28T11:34:51.903Z,13536
2016-05-28T11:35:52.014Z,14212
2016-05-28T11:36:51.891Z,15036
2016-05-28T11:37:51.894Z,14352
2016-05-28T11:38:52.006Z,12960
2016-05-28T11:39:51.978Z,11852
2016-05-28T11:40:51.964Z,11884
2016-05-28T11:41:51.797Z,12152
2016-05-28T11:42:51.970Z,11792
2016-05-28T11:43:51.785Z,11568
2016-05-28T11:44:51.944Z,11548
2016-05-28T11:45:51.900Z,11392
2016-05-28T11:46:51.919Z,10304
2016-05-28T11:47:51.891Z,9616
2016-05-28T11:48:51.877Z,9276
2016-05-28T11:49:51.770Z,9200
2016-05-28T11:50:51.852Z,9148
2016-05-28T11:51:51.838Z,9140
2016-05-28T11:52:51.857Z,9324
2016-05-28T11:53:51.812Z,9656
2016-05-28T11:54:51.831Z,10212
2016-05-28T11:55:51.787Z,11176
2016-05-28T11:56:51.774Z,12264
2016-05-28T11:57:51.760Z,12916
2016-05-28T11:58:51.763Z,13120
2016-05-28T11:59:51.594Z,13144
2016-05-28T12:00:51.738Z,12796
2016-05-28T12:01:51.740Z,12336
2016-05-28T12:02:51.571Z,12140
2016-05-28T12:03:51.698Z,12356
2016-05-28T12:04:51.843Z,12476
2016-05-28T12:05:51.673Z,12400
2016-05-28T12:06:51.644Z,12692
2016-05-28T12:07:51.507Z,12940
2016-05-28T12:08:51.477Z,13200
2016-05-28T12:09:51.622Z,13668
2016-05-28T12:10:51.625Z,14528
2016-05-28T12:11:51.595Z,15192
2016-05-28T12:12:51.441Z,15528
2016-05-28T12:13:51.414Z,15804
2016-05-28T12:14:51.572Z,16012
2016-05-28T12:15:51.544Z,15988
2016-05-28T12:16:51.561Z,15792
2016-05-28T12:17:51.533Z,15436
2016-05-28T12:18:51.536Z,15020
2016-05-28T12:19:51.367Z,14692
2016-05-28T12:20:51.494Z,14600
2016-05-28T12:21:51.497Z,14644
2016-05-28T12:22:51.312Z,14692
2016-05-28T12:23:51.471Z,14236
2016-05-28T12:24:51.458Z,13616
2016-05-28T12:25:51.477Z,12640
2016-05-28T12:26:51.432Z,11648
2016-05-28T12:27:51.388Z,11176
2016-05-28T12:28:51.390Z,10728
2016-05-28T12:29:51.379Z,10068
2016-05-28T12:30:51.365Z,9372
2016-05-28T12:31:51.211Z,8516
2016-05-28T12:32:51.354Z,7748
2016-05-28T12:33:51.342Z,7328
2016-05-28T12:34:51.485Z,6812
2016-05-28T12:35:51.159Z,6652
2016-05-28T12:36:51.320Z,6656
2016-05-28T12:37:51.306Z,6828
2016-05-28T12:38:51.309Z,7424
2016-05-28T12:39:51.124Z,7964
2016-05-28T12:40:51.330Z,8180
2016-05-28T12:41:51.239Z,8692
2016-05-28T12:42:51.397Z,9284
2016-05-28T12:43:51.228Z,9728
2016-05-28T12:44:51.200Z,10244
2016-05-28T12:45:51.202Z,10736
2016-05-28T12:46:51.190Z,11152
2016-05-28T12:47:53.474Z,11560
2016-05-28T12:48:51.007Z,11716
2016-05-28T12:49:51.525Z,11752
2016-05-28T12:50:51.138Z,11768
2016-05-28T12:51:51.109Z,12104
2016-05-28T12:52:51.096Z,12564
2016-05-28T12:53:51.099Z,12904
2016-05-28T12:54:51.085Z,13128
2016-05-28T12:55:51.073Z,13440
2016-05-28T12:56:50.748Z,13576
2016-05-28T12:57:51.062Z,13620
2016-05-28T12:58:50.893Z,13772
2016-05-28T12:59:50.866Z,13760
2016-05-28T13:00:50.993Z,13612
2016-05-28T13:01:50.979Z,13296
2016-05-28T13:02:51.374Z,12844
2016-05-28T13:03:50.954Z,12416
2016-05-28T13:04:51.457Z,12120
2016-05-28T13:05:50.943Z,12000
2016-05-28T13:06:50.931Z,12016
2016-05-28T13:07:50.918Z,12272
2016-05-28T13:08:50.749Z,12460
2016-05-28T13:09:50.892Z,12608
2016-05-28T13:10:50.722Z,12684
2016-05-28T13:11:50.866Z,12792
2016-05-28T13:12:51.697Z,12988
2016-05-28T13:13:50.840Z,12992
2016-05-28T13:14:50.827Z,12900
2016-05-28T13:15:50.814Z,12616
2016-05-28T13:16:50.802Z,12076
2016-05-28T13:17:51.632Z,11780
2016-05-28T13:18:50.775Z,11868
2016-05-28T13:19:50.793Z,11988
2016-05-28T13:20:51.781Z,12024
2016-05-28T13:21:50.736Z,12072
2016-05-28T13:22:50.583Z,12132